Champion Jet 2 — 5BGN4 — position and weather

sailwx.info

Track history (hours):
 
Tides and Currents Weather Stations Pressure Air Temp Water Temp Dewpoint Dewpoint Depression Visibility Wind Speed Wind Dir Waves Ship Positions

Champion Jet 2

Last reported at 2018-Jun-24 12:42 UTC. Time now 2018-Jun-25 00:41 UTC.
Position N 36°59' E 025°18'.

Length 86 m; draft 3.3 m.

Type: High speed craft. MMSI: 209074000.

Date/timePositionNaut miles runAvg speedWind from/ knotsBaromVisibWave heightAir tempDewpointWater temp
2018-Jun-24 12:42N 36°59' E 025°18'734.8
2018-Jun-24 12:31N 37°06' E 025°20'1015.1
2018-Jun-24 11:53N 37°07' E 025°08'1 3.4
2018-Jun-24 11:30N 37°08' E 025°08'1735.0
2018-Jun-24 11:01N 37°24' E 025°17'1 2.7
2018-Jun-24 10:31N 37°25' E 025°17'1632.8
2018-Jun-24 10:00N 37°09' E 025°21'714.9
2018-Jun-24 09:30N 37°02' E 025°18'101 6.2
2018-Jun-23 17:13N 35°26' E 024°38'733.8
2018-Jun-23 17:01N 35°23' E 024°30'4 7.6
2018-Jun-23 16:30N 35°27' E 024°33'3 0.3
2018-Jun-23 05:24N 35°29' E 024°35'821.6
2018-Jun-23 05:00N 35°22' E 024°29'0 0.0
2018-Jun-23 04:30N 35°22' E 024°29'0 0.2
2018-Jun-23 04:00N 35°22' E 024°29'105 6.8
2018-Jun-22 12:36N 36°59' E 025°18'334.2
2018-Jun-22 12:31N 37°02' E 025°18'815.5
2018-Jun-22 12:00N 37°10' E 025°16'714.3
2018-Jun-22 11:30N 37°06' E 025°08'1734.7
2018-Jun-22 11:01N 37°22' E 025°16'611.1
2018-Jun-22 10:31N 37°27' E 025°17'1734.1
2018-Jun-22 10:00N 37°11' E 025°21'510.2
2018-Jun-22 09:30N 37°06' E 025°20'7 0.3
2018-Jun-21 12:29N 36°59' E 025°18'919.6
2018-Jun-21 12:01N 37°08' E 025°20'1017.4
2018-Jun-21 11:27N 37°05' E 025°08'1431.8
2018-Jun-21 11:01N 37°19' E 025°15'1019.6
2018-Jun-21 10:31N 37°28' E 025°19'1530.0
2018-Jun-21 10:01N 37°13' E 025°21'917.2
2018-Jun-21 09:29N 37°04' E 025°19'5 0.2
2018-Jun-20 12:49N 36°59' E 025°18'826.3
2018-Jun-20 12:31N 37°06' E 025°22'1222.3
2018-Jun-20 11:59N 37°06' E 025°08'714.2
2018-Jun-20 11:30N 37°13' E 025°11'1632.3
2018-Jun-20 11:00N 37°28' E 025°19'713.5
2018-Jun-20 10:31N 37°21' E 025°19'1529.5
2018-Jun-20 10:01N 37°06' E 025°22'8 0.4
2018-Jun-19 12:45N 36°59' E 025°18'831.1
2018-Jun-19 12:30N 37°06' E 025°21'1018.8
2018-Jun-19 11:58N 37°07' E 025°09'4 8.2
2018-Jun-19 11:29N 37°11' E 025°10'1634.7
2018-Jun-19 11:01N 37°26' E 025°18'3 6.7
2018-Jun-19 10:31N 37°23' E 025°18'1632.6
2018-Jun-19 10:01N 37°07' E 025°22'816.0
2018-Jun-19 09:31N 36°60' E 025°18'1 0.0
2018-Jun-18 12:36N 36°59' E 025°18'334.8
2018-Jun-18 12:30N 37°03' E 025°18'815.4
2018-Jun-18 12:01N 37°10' E 025°16'713.9
2018-Jun-18 11:29N 37°06' E 025°08'1734.7
2018-Jun-18 11:00N 37°22' E 025°16'612.1
2018-Jun-18 10:30N 37°28' E 025°18'1733.4
2018-Jun-18 10:01N 37°11' E 025°21'816.0
2018-Jun-18 09:31N 37°03' E 025°19'4 0.2
2018-Jun-17 12:46N 36°59' E 025°18'829.3
2018-Jun-17 12:31N 37°06' E 025°22'1119.8
2018-Jun-17 11:58N 37°07' E 025°08'4 9.1
2018-Jun-17 11:30N 37°11' E 025°10'1733.6
2018-Jun-17 11:00N 37°27' E 025°18'2 3.9
2018-Jun-17 10:31N 37°25' E 025°17'1733.7
2018-Jun-17 10:01N 37°08' E 025°22'816.2
2018-Jun-17 09:31N 37°01' E 025°18'102 6.2
2018-Jun-16 17:01N 35°25' E 024°34'035.3
2018-Jun-16 17:00N 35°25' E 024°34'4 8.2
2018-Jun-16 16:30N 35°24' E 024°29'10412.9
2018-Jun-16 08:31N 36°59' E 025°20'032.7
2018-Jun-16 08:31N 36°59' E 025°20'918.4
2018-Jun-16 08:00N 37°08' E 025°22'1632.4
2018-Jun-16 07:31N 37°24' E 025°17'4 8.7
2018-Jun-16 07:01N 37°28' E 025°16'2033.2
2018-Jun-16 06:24N 37°32' E 024°52'5232.4
2018-Jun-16 04:48N 37°40' E 023°47'931.2
2018-Jun-16 04:31N 37°47' E 023°39'1019.7
2018-Jun-16 04:00N 37°57' E 023°39'0 0.0
2018-Jun-16 03:30N 37°57' E 023°39'0 0.0
2018-Jun-16 03:00N 37°57' E 023°39'0 0.0
2018-Jun-16 02:30N 37°57' E 023°39'0 0.0
2018-Jun-16 02:00N 37°57' E 023°39'0 0.0
2018-Jun-16 01:30N 37°57' E 023°39'0 0.0
2018-Jun-16 01:00N 37°57' E 023°39'0 0.0
2018-Jun-16 00:30N 37°57' E 023°39'0 0.0
2018-Jun-16 00:00N 37°57' E 023°39'0 0.0
2018-Jun-15 23:30N 37°57' E 023°39'0 0.0
2018-Jun-15 23:00N 37°57' E 023°39'0 0.0
2018-Jun-15 22:30N 37°57' E 023°39'0 0.0
2018-Jun-15 22:00N 37°57' E 023°39'0 0.0
2018-Jun-15 21:30N 37°57' E 023°39'0 0.0
2018-Jun-15 21:00N 37°57' E 023°39'0 0.0
2018-Jun-15 20:30N 37°57' E 023°39'0 0.0
2018-Jun-15 20:00N 37°57' E 023°39'0 0.0
2018-Jun-15 19:30N 37°57' E 023°39'0 0.0
2018-Jun-15 19:00N 37°57' E 023°39'0 0.0
2018-Jun-15 18:30N 37°57' E 023°39'0 0.0
2018-Jun-15 18:00N 37°57' E 023°39'0 0.0
2018-Jun-15 17:30N 37°57' E 023°39'0 0.0
2018-Jun-15 17:00N 37°57' E 023°39'0 0.0
2018-Jun-15 16:30N 37°57' E 023°39'0 0.0
2018-Jun-15 16:00N 37°57' E 023°39'2 4.2
2018-Jun-15 15:31N 37°55' E 023°37'1530.4
2018-Jun-15 15:01N 37°42' E 023°48'4531.8
2018-Jun-15 13:35N 37°32' E 024°44'333.6
2018-Jun-15 13:30N 37°32' E 024°47'1733.3
2018-Jun-15 13:01N 37°30' E 025°08'1014.6
2018-Jun-15 12:20N 37°23' E 025°17'1133.8
2018-Jun-15 12:00N 37°13' E 025°21'714.1
2018-Jun-15 11:31N 37°06' E 025°20'2711.2
2018-Jun-15 09:08N 36°39' E 025°15'2032.6
2018-Jun-15 08:32N 36°59' E 025°18'132.7
2018-Jun-15 08:30N 36°60' E 025°18'1019.4
2018-Jun-15 08:01N 37°09' E 025°22'1632.9
2018-Jun-15 07:31N 37°25' E 025°18'3 6.2
2018-Jun-15 07:01N 37°28' E 025°17'1733.7
2018-Jun-15 06:31N 37°31' E 024°56'5232.7
2018-Jun-15 04:54N 37°39' E 023°50'1231.1
2018-Jun-15 04:31N 37°47' E 023°39'1019.5
2018-Jun-15 04:00N 37°57' E 023°39'0 0.0
2018-Jun-15 03:29N 37°57' E 023°39'0 0.0
2018-Jun-15 03:00N 37°57' E 023°39'0 0.0
2018-Jun-15 02:30N 37°57' E 023°39'0 0.0
2018-Jun-15 02:00N 37°57' E 023°39'0 0.0
2018-Jun-15 01:30N 37°57' E 023°39'0 0.0
2018-Jun-15 01:00N 37°57' E 023°39'0 0.0
2018-Jun-15 00:30N 37°57' E 023°39'0 0.0
2018-Jun-15 00:00N 37°57' E 023°39'0 0.0
2018-Jun-14 23:30N 37°57' E 023°39'0 0.0
2018-Jun-14 22:59N 37°57' E 023°39'0 0.0
2018-Jun-14 22:30N 37°57' E 023°39'0 0.0
2018-Jun-14 22:00N 37°57' E 023°39'0 0.0
2018-Jun-14 21:30N 37°57' E 023°39'0 0.0
2018-Jun-14 21:00N 37°57' E 023°39'0 0.0
2018-Jun-14 20:30N 37°57' E 023°39'0 0.0
2018-Jun-14 19:59N 37°57' E 023°39'0 0.0
2018-Jun-14 19:29N 37°57' E 023°39'0 0.0
2018-Jun-14 19:00N 37°57' E 023°39'0 0.0
2018-Jun-14 18:30N 37°57' E 023°39'0 0.0
2018-Jun-14 18:00N 37°57' E 023°39'0 0.0
2018-Jun-14 17:30N 37°57' E 023°39'0 0.0
2018-Jun-14 17:00N 37°57' E 023°39'0 0.0
2018-Jun-14 16:30N 37°57' E 023°39'0 0.0
2018-Jun-14 16:00N 37°57' E 023°39'0 0.0
2018-Jun-14 15:30N 37°57' E 023°39'510.8
2018-Jun-14 15:01N 37°51' E 023°39'5532.4
2018-Jun-14 13:19N 37°32' E 024°44'1434.5
2018-Jun-14 12:54N 37°30' E 025°02'  
Track history (hours):
 
Tides and Currents Weather Stations Pressure Air Temp Water Temp Dewpoint Dewpoint Depression Visibility Wind Speed Wind Dir Waves Ship Positions

Champion Jet 2

Last reported at 2018-Jun-24 12:42 UTC. Time now 2018-Jun-25 00:41 UTC.
Position N 36°59' E 025°18'.

Length 86 m; draft 3.3 m.

Type: High speed craft. MMSI: 209074000.

Date/timePositionNaut miles runAvg speedWind from/ knotsBaromVisibWave heightAir tempDewpointWater temp
2018-Jun-24 12:42N 36°59' E 025°18'734.8
2018-Jun-24 12:31N 37°06' E 025°20'1015.1
2018-Jun-24 11:53N 37°07' E 025°08'1 3.4
2018-Jun-24 11:30N 37°08' E 025°08'1735.0
2018-Jun-24 11:01N 37°24' E 025°17'1 2.7
2018-Jun-24 10:31N 37°25' E 025°17'1632.8
2018-Jun-24 10:00N 37°09' E 025°21'714.9
2018-Jun-24 09:30N 37°02' E 025°18'101 6.2
2018-Jun-23 17:13N 35°26' E 024°38'733.8
2018-Jun-23 17:01N 35°23' E 024°30'4 7.6
2018-Jun-23 16:30N 35°27' E 024°33'3 0.3
2018-Jun-23 05:24N 35°29' E 024°35'821.6
2018-Jun-23 05:00N 35°22' E 024°29'0 0.0
2018-Jun-23 04:30N 35°22' E 024°29'0 0.2
2018-Jun-23 04:00N 35°22' E 024°29'105 6.8
2018-Jun-22 12:36N 36°59' E 025°18'334.2
2018-Jun-22 12:31N 37°02' E 025°18'815.5
2018-Jun-22 12:00N 37°10' E 025°16'714.3
2018-Jun-22 11:30N 37°06' E 025°08'1734.7
2018-Jun-22 11:01N 37°22' E 025°16'611.1
2018-Jun-22 10:31N 37°27' E 025°17'1734.1
2018-Jun-22 10:00N 37°11' E 025°21'510.2
2018-Jun-22 09:30N 37°06' E 025°20'7 0.3
2018-Jun-21 12:29N 36°59' E 025°18'919.6
2018-Jun-21 12:01N 37°08' E 025°20'1017.4
2018-Jun-21 11:27N 37°05' E 025°08'1431.8
2018-Jun-21 11:01N 37°19' E 025°15'1019.6
2018-Jun-21 10:31N 37°28' E 025°19'1530.0
2018-Jun-21 10:01N 37°13' E 025°21'917.2
2018-Jun-21 09:29N 37°04' E 025°19'5 0.2
2018-Jun-20 12:49N 36°59' E 025°18'826.3
2018-Jun-20 12:31N 37°06' E 025°22'1222.3
2018-Jun-20 11:59N 37°06' E 025°08'714.2
2018-Jun-20 11:30N 37°13' E 025°11'1632.3
2018-Jun-20 11:00N 37°28' E 025°19'713.5
2018-Jun-20 10:31N 37°21' E 025°19'1529.5
2018-Jun-20 10:01N 37°06' E 025°22'8 0.4
2018-Jun-19 12:45N 36°59' E 025°18'831.1
2018-Jun-19 12:30N 37°06' E 025°21'1018.8
2018-Jun-19 11:58N 37°07' E 025°09'4 8.2
2018-Jun-19 11:29N 37°11' E 025°10'1634.7
2018-Jun-19 11:01N 37°26' E 025°18'3 6.7
2018-Jun-19 10:31N 37°23' E 025°18'1632.6
2018-Jun-19 10:01N 37°07' E 025°22'816.0
2018-Jun-19 09:31N 36°60' E 025°18'1 0.0
2018-Jun-18 12:36N 36°59' E 025°18'334.8
2018-Jun-18 12:30N 37°03' E 025°18'815.4
2018-Jun-18 12:01N 37°10' E 025°16'713.9
2018-Jun-18 11:29N 37°06' E 025°08'1734.7
2018-Jun-18 11:00N 37°22' E 025°16'612.1
2018-Jun-18 10:30N 37°28' E 025°18'1733.4
2018-Jun-18 10:01N 37°11' E 025°21'816.0
2018-Jun-18 09:31N 37°03' E 025°19'4 0.2
2018-Jun-17 12:46N 36°59' E 025°18'829.3
2018-Jun-17 12:31N 37°06' E 025°22'1119.8
2018-Jun-17 11:58N 37°07' E 025°08'4 9.1
2018-Jun-17 11:30N 37°11' E 025°10'1733.6
2018-Jun-17 11:00N 37°27' E 025°18'2 3.9
2018-Jun-17 10:31N 37°25' E 025°17'1733.7
2018-Jun-17 10:01N 37°08' E 025°22'816.2
2018-Jun-17 09:31N 37°01' E 025°18'102 6.2
2018-Jun-16 17:01N 35°25' E 024°34'035.3
2018-Jun-16 17:00N 35°25' E 024°34'4 8.2
2018-Jun-16 16:30N 35°24' E 024°29'10412.9
2018-Jun-16 08:31N 36°59' E 025°20'032.7
2018-Jun-16 08:31N 36°59' E 025°20'918.4
2018-Jun-16 08:00N 37°08' E 025°22'1632.4
2018-Jun-16 07:31N 37°24' E 025°17'4 8.7
2018-Jun-16 07:01N 37°28' E 025°16'2033.2
2018-Jun-16 06:24N 37°32' E 024°52'5232.4
2018-Jun-16 04:48N 37°40' E 023°47'931.2
2018-Jun-16 04:31N 37°47' E 023°39'1019.7
2018-Jun-16 04:00N 37°57' E 023°39'0 0.0
2018-Jun-16 03:30N 37°57' E 023°39'0 0.0
2018-Jun-16 03:00N 37°57' E 023°39'0 0.0
2018-Jun-16 02:30N 37°57' E 023°39'0 0.0
2018-Jun-16 02:00N 37°57' E 023°39'0 0.0
2018-Jun-16 01:30N 37°57' E 023°39'0 0.0
2018-Jun-16 01:00N 37°57' E 023°39'0 0.0
2018-Jun-16 00:30N 37°57' E 023°39'0 0.0
2018-Jun-16 00:00N 37°57' E 023°39'0 0.0
2018-Jun-15 23:30N 37°57' E 023°39'0 0.0
2018-Jun-15 23:00N 37°57' E 023°39'0 0.0
2018-Jun-15 22:30N 37°57' E 023°39'0 0.0
2018-Jun-15 22:00N 37°57' E 023°39'0 0.0
2018-Jun-15 21:30N 37°57' E 023°39'0 0.0
2018-Jun-15 21:00N 37°57' E 023°39'0 0.0
2018-Jun-15 20:30N 37°57' E 023°39'0 0.0
2018-Jun-15 20:00N 37°57' E 023°39'0 0.0
2018-Jun-15 19:30N 37°57' E 023°39'0 0.0
2018-Jun-15 19:00N 37°57' E 023°39'0 0.0
2018-Jun-15 18:30N 37°57' E 023°39'0 0.0
2018-Jun-15 18:00N 37°57' E 023°39'0 0.0
2018-Jun-15 17:30N 37°57' E 023°39'0 0.0
2018-Jun-15 17:00N 37°57' E 023°39'0 0.0
2018-Jun-15 16:30N 37°57' E 023°39'0 0.0
2018-Jun-15 16:00N 37°57' E 023°39'2 4.2
2018-Jun-15 15:31N 37°55' E 023°37'1530.4
2018-Jun-15 15:01N 37°42' E 023°48'4531.8
2018-Jun-15 13:35N 37°32' E 024°44'333.6
2018-Jun-15 13:30N 37°32' E 024°47'1733.3
2018-Jun-15 13:01N 37°30' E 025°08'1014.6
2018-Jun-15 12:20N 37°23' E 025°17'1133.8
2018-Jun-15 12:00N 37°13' E 025°21'714.1
2018-Jun-15 11:31N 37°06' E 025°20'2711.2
2018-Jun-15 09:08N 36°39' E 025°15'2032.6
2018-Jun-15 08:32N 36°59' E 025°18'132.7
2018-Jun-15 08:30N 36°60' E 025°18'1019.4
2018-Jun-15 08:01N 37°09' E 025°22'1632.9
2018-Jun-15 07:31N 37°25' E 025°18'3 6.2
2018-Jun-15 07:01N 37°28' E 025°17'1733.7
2018-Jun-15 06:31N 37°31' E 024°56'5232.7
2018-Jun-15 04:54N 37°39' E 023°50'1231.1
2018-Jun-15 04:31N 37°47' E 023°39'1019.5
2018-Jun-15 04:00N 37°57' E 023°39'0 0.0
2018-Jun-15 03:29N 37°57' E 023°39'0 0.0
2018-Jun-15 03:00N 37°57' E 023°39'0 0.0
2018-Jun-15 02:30N 37°57' E 023°39'0 0.0
2018-Jun-15 02:00N 37°57' E 023°39'0 0.0
2018-Jun-15 01:30N 37°57' E 023°39'0 0.0
2018-Jun-15 01:00N 37°57' E 023°39'0 0.0
2018-Jun-15 00:30N 37°57' E 023°39'0 0.0
2018-Jun-15 00:00N 37°57' E 023°39'0 0.0
2018-Jun-14 23:30N 37°57' E 023°39'0 0.0
2018-Jun-14 22:59N 37°57' E 023°39'0 0.0
2018-Jun-14 22:30N 37°57' E 023°39'0 0.0
2018-Jun-14 22:00N 37°57' E 023°39'0 0.0
2018-Jun-14 21:30N 37°57' E 023°39'0 0.0
2018-Jun-14 21:00N 37°57' E 023°39'0 0.0
2018-Jun-14 20:30N 37°57' E 023°39'0 0.0
2018-Jun-14 19:59N 37°57' E 023°39'0 0.0
2018-Jun-14 19:29N 37°57' E 023°39'0 0.0
2018-Jun-14 19:00N 37°57' E 023°39'0 0.0
2018-Jun-14 18:30N 37°57' E 023°39'0 0.0
2018-Jun-14 18:00N 37°57' E 023°39'0 0.0
2018-Jun-14 17:30N 37°57' E 023°39'0 0.0
2018-Jun-14 17:00N 37°57' E 023°39'0 0.0
2018-Jun-14 16:30N 37°57' E 023°39'0 0.0
2018-Jun-14 16:00N 37°57' E 023°39'0 0.0
2018-Jun-14 15:30N 37°57' E 023°39'510.8
2018-Jun-14 15:01N 37°51' E 023°39'5532.4
2018-Jun-14 13:19N 37°32' E 024°44'1434.5
2018-Jun-14 12:54N 37°30' E 025°02'  

Dump ship's entire track history